Time;durP1;ratioP1;P1;durP2;ratioP2;P2;SDS_P1;SDS_P2;PMS_P1;PMS_P2;Temp;Humidity;BMP_temperature;BMP_pressure;BME280_temperature;BME280_humidity;BME280_pressure;Samples;Min_cycle;Max_cycle;Signal;HPM_P1;HPM_P2
2022/03/02 00:00:56;;;;;;;102.30;76.30;;;;;;;-5.16;54.02;98971.98;105727;1280;22711;-77
2022/03/02 00:03:27;;;;;;;83.90;69.50;;;;;;;-5.25;53.88;98968.45;105439;1280;24244;-79
2022/03/02 00:05:54;;;;;;;109.30;80.50;;;;;;;-5.35;54.14;98964.16;105429;1280;22690;-75
2022/03/02 00:08:22;;;;;;;118.30;79.70;;;;;;;-5.47;54.37;98961.38;105658;1280;22648;-78
2022/03/02 00:10:53;;;;;;;129.20;80.40;;;;;;;-5.58;54.26;98964.73;105701;1279;25421;-78
2022/03/02 00:13:21;;;;;;;110.00;76.70;;;;;;;-5.70;54.15;98957.02;105703;1280;23206;-77
2022/03/02 00:15:51;;;;;;;104.50;74.00;;;;;;;-5.85;54.18;98954.73;105723;1280;22553;-77
2022/03/02 00:18:19;;;;;;;84.20;70.40;;;;;;;-5.99;54.47;98952.42;105691;1280;25369;-77
2022/03/02 00:20:47;;;;;;;69.80;60.20;;;;;;;-6.09;54.42;98952.51;105669;1280;24265;-77
2022/03/02 00:23:17;;;;;;;77.00;64.70;;;;;;;-6.09;54.92;98951.22;105532;1280;22799;-77
2022/03/02 00:25:44;;;;;;;82.50;64.90;;;;;;;-6.03;54.86;98941.84;105657;1280;22550;-78
2022/03/02 00:28:18;;;;;;;156.50;89.20;;;;;;;-5.94;55.02;98939.48;105699;1279;22698;-77
2022/03/02 00:30:47;;;;;;;172.90;99.90;;;;;;;-5.93;54.92;98939.38;105631;1280;24089;-78
2022/03/02 00:33:17;;;;;;;151.30;87.60;;;;;;;-6.00;54.78;98933.70;105610;1280;25317;-77
2022/03/02 00:35:45;;;;;;;173.30;97.50;;;;;;;-6.10;54.89;98934.92;105644;1280;22686;-78
2022/03/02 00:38:16;;;;;;;170.80;102.00;;;;;;;-6.13;55.34;98929.45;105657;1280;24442;-78
2022/03/02 00:40:44;;;;;;;174.00;107.20;;;;;;;-6.13;55.41;98928.80;105402;1280;22569;-78
2022/03/02 00:43:14;;;;;;;162.00;100.90;;;;;;;-6.13;55.45;98926.66;105736;1280;23794;-77
2022/03/02 00:45:42;;;;;;;170.60;100.50;;;;;;;-6.12;55.84;98926.92;105704;1280;24307;-78
2022/03/02 00:48:10;;;;;;;136.70;86.50;;;;;;;-6.11;55.94;98928.23;105870;1280;25323;-77
2022/03/02 00:50:38;;;;;;;150.50;93.00;;;;;;;-6.08;55.97;98927.21;105762;1280;22713;-78
2022/03/02 00:53:09;;;;;;;141.10;88.90;;;;;;;-6.06;56.05;98922.61;105657;1280;25382;-78
2022/03/02 00:55:37;;;;;;;112.50;79.20;;;;;;;-6.05;55.96;98923.17;105564;1280;22553;-78
2022/03/02 00:58:09;;;;;;;104.90;75.80;;;;;;;-6.01;56.15;98919.39;105642;1280;25431;-77
2022/03/02 01:00:37;;;;;;;118.50;80.80;;;;;;;-5.99;56.07;98918.31;105661;1280;22621;-77
2022/03/02 01:03:07;;;;;;;101.70;77.00;;;;;;;-6.02;55.73;98915.13;105759;1280;24241;-78
2022/03/02 01:05:35;;;;;;;88.90;70.80;;;;;;;-6.09;55.78;98911.90;105736;1280;24314;-79
2022/03/02 01:08:03;;;;;;;84.80;69.00;;;;;;;-6.09;56.27;98911.19;105436;1280;25376;-78
2022/03/02 01:10:33;;;;;;;58.80;52.70;;;;;;;-6.07;56.53;98910.64;105707;1280;24327;-77
2022/03/02 01:13:01;;;;;;;85.60;68.10;;;;;;;-6.05;56.92;98909.70;105727;1280;22700;-77
2022/03/02 01:15:31;;;;;;;66.00;58.90;;;;;;;-6.04;56.62;98907.20;105731;1280;25384;-78
2022/03/02 01:17:59;;;;;;;59.40;53.20;;;;;;;-6.03;57.03;98902.70;105457;1280;25433;-77
2022/03/02 01:20:27;;;;;;;78.40;68.80;;;;;;;-6.00;57.04;98903.35;105575;1280;24112;-78
2022/03/02 01:22:56;;;;;;;56.80;50.90;;;;;;;-5.95;57.05;98903.18;105476;1280;25427;-79
2022/03/02 01:25:24;;;;;;;50.80;45.50;;;;;;;-5.89;57.32;98902.50;105471;1280;164489;-77
2022/03/02 01:27:52;;;;;;;45.30;40.70;;;;;;;-5.81;57.37;98896.58;105598;1279;24355;-79
2022/03/02 01:30:23;;;;;;;44.50;39.90;;;;;;;-5.71;58.21;98895.95;105645;1279;22704;-78
2022/03/02 01:32:51;;;;;;;48.10;43.00;;;;;;;-5.56;58.15;98892.61;105465;1280;22708;-78
2022/03/02 01:35:21;;;;;;;60.70;54.40;;;;;;;-5.40;57.96;98890.92;105607;1280;25452;-78
2022/03/02 01:37:50;;;;;;;87.60;69.10;;;;;;;-5.23;57.77;98883.81;105955;1280;22547;-78
2022/03/02 01:40:18;;;;;;;57.20;51.20;;;;;;;-5.09;57.47;98885.04;105432;1280;24424;-77
2022/03/02 01:42:49;;;;;;;52.40;46.90;;;;;;;-4.98;57.41;98879.41;105718;1280;23223;-79
2022/03/02 01:45:17;;;;;;;59.40;52.90;;;;;;;-4.90;57.51;98875.15;105612;1280;22725;-77
2022/03/02 01:47:49;;;;;;;51.30;46.00;;;;;;;-4.90;57.23;98878.43;105650;1280;25503;-77
2022/03/02 01:50:17;;;;;;;47.00;42.10;;;;;;;-4.95;57.19;98871.74;105625;1280;25271;-78
2022/03/02 01:52:47;;;;;;;49.60;44.50;;;;;;;-4.97;57.43;98872.15;105662;1280;22721;-78
2022/03/02 01:55:16;;;;;;;49.10;44.00;;;;;;;-4.98;57.47;98871.49;105733;1280;22553;-77
2022/03/02 01:57:46;;;;;;;48.90;43.80;;;;;;;-4.95;57.32;98870.54;105476;1280;22543;-77
2022/03/02 02:00:18;;;;;;;45.00;40.40;;;;;;;-4.92;57.44;98870.70;105667;1280;24433;-77
2022/03/02 02:02:47;;;;;;;46.60;41.80;;;;;;;-4.90;57.54;98870.27;105427;1280;24393;-77
2022/03/02 02:05:19;;;;;;;48.70;43.60;;;;;;;-4.86;57.56;98870.83;105594;1280;25327;-78
2022/03/02 02:07:48;;;;;;;55.00;49.20;;;;;;;-4.82;57.65;98869.84;105711;1280;22718;-77
2022/03/02 02:10:16;;;;;;;55.30;49.30;;;;;;;-4.78;57.66;98867.46;105909;1280;24304;-79
2022/03/02 02:12:44;;;;;;;53.20;47.50;;;;;;;-4.74;57.66;98867.08;106070;1280;22780;-78
2022/03/02 02:15:15;;;;;;;61.50;55.20;;;;;;;-4.72;57.70;98865.71;105816;1280;23043;-77
2022/03/02 02:17:44;;;;;;;59.30;53.10;;;;;;;-4.70;57.74;98865.44;105844;1280;24313;-77
2022/03/02 02:20:13;;;;;;;57.10;51.10;;;;;;;-4.65;57.80;98864.17;105666;1280;22547;-78
2022/03/02 02:22:43;;;;;;;50.70;45.30;;;;;;;-4.57;57.73;98870.26;105657;1280;24518;-77
2022/03/02 02:25:14;;;;;;;53.00;47.40;;;;;;;-4.48;57.85;98864.83;105718;1280;22717;-78
2022/03/02 02:27:49;;;;;;;60.00;53.60;;;;;;;-4.39;57.92;98861.55;105745;1280;22661;-76
2022/03/02 02:30:18;;;;;;;66.00;57.30;;;;;;;-4.34;58.03;98856.77;105669;1280;24319;-76
2022/03/02 02:32:46;;;;;;;54.40;48.70;;;;;;;-4.31;58.05;98850.80;105811;1280;24549;-77
2022/03/02 02:35:15;;;;;;;50.00;44.70;;;;;;;-4.28;58.11;98849.18;105684;1280;22536;-77
2022/03/02 02:37:45;;;;;;;49.10;43.80;;;;;;;-4.25;58.25;98845.66;105721;1280;22551;-78
2022/03/02 02:40:18;;;;;;;56.40;50.30;;;;;;;-4.22;58.08;98844.85;105559;1280;25450;-77
2022/03/02 02:42:48;;;;;;;62.10;48.00;;;;;;;-4.22;58.14;98840.92;105504;1280;22559;-76
2022/03/02 02:45:21;;;;;;;49.30;44.10;;;;;;;-4.24;58.06;98837.01;105691;1280;26151;-77
2022/03/02 02:47:54;;;;;;;49.60;44.40;;;;;;;-4.22;58.10;98840.35;105719;1280;24400;-78
2022/03/02 02:50:31;;;;;;;44.80;40.00;;;;;;;-4.34;58.23;98824.41;105385;1282;22561;-78
2022/03/02 02:53:02;;;;;;;46.70;40.50;;;;;;;-4.22;58.43;98848.24;105440;1280;25286;-79
2022/03/02 02:55:34;;;;;;;47.50;42.40;;;;;;;-4.23;58.76;98847.86;105720;1280;22705;-77
2022/03/02 02:58:03;;;;;;;46.40;41.70;;;;;;;-4.24;58.59;98844.46;105207;1280;25309;-79
2022/03/02 03:00:36;;;;;;;45.50;40.90;;;;;;;-4.26;58.56;98839.15;105713;1280;22769;-80
2022/03/02 03:03:07;;;;;;;47.80;42.80;;;;;;;-4.28;58.86;98842.66;105768;1280;22883;-78
2022/03/02 03:05:35;;;;;;;47.30;42.40;;;;;;;-4.27;58.97;98841.23;105527;1281;24312;-79
2022/03/02 03:08:12;;;;;;;45.50;40.50;;;;;;;-4.27;58.67;98840.48;105704;1280;25427;-79
2022/03/02 03:10:42;;;;;;;45.70;40.90;;;;;;;-4.24;59.05;98844.33;105762;1279;22569;-80
2022/03/02 03:13:12;;;;;;;58.50;45.10;;;;;;;-4.19;58.87;98843.02;105679;1280;24235;-78
2022/03/02 03:15:40;;;;;;;46.50;41.60;;;;;;;-4.15;58.76;98839.57;105478;1280;22549;-78
2022/03/02 03:18:08;;;;;;;50.50;43.00;;;;;;;-4.12;59.07;98835.73;105623;1280;24536;-78
2022/03/02 03:20:36;;;;;;;48.00;42.90;;;;;;;-4.13;59.05;98837.36;105530;1280;25380;-79
2022/03/02 03:23:06;;;;;;;44.70;40.10;;;;;;;-4.13;59.10;98840.70;105558;1280;22626;-78
2022/03/02 03:25:34;;;;;;;46.00;41.20;;;;;;;-4.12;58.90;98841.11;105525;1280;22553;-79
2022/03/02 03:28:04;;;;;;;45.00;40.30;;;;;;;-4.12;58.97;98841.32;105552;1280;22861;-78
2022/03/02 03:30:32;;;;;;;45.00;40.20;;;;;;;-4.13;58.95;98841.17;105632;1280;25298;-78
2022/03/02 03:33:02;;;;;;;45.00;40.20;;;;;;;-4.15;58.73;98836.38;105803;1280;24251;-78
2022/03/02 03:35:30;;;;;;;46.80;42.00;;;;;;;-4.16;58.87;98836.19;105647;1280;22606;-77
2022/03/02 03:37:58;;;;;;;45.10;40.50;;;;;;;-4.17;58.94;98828.52;105658;1280;23940;-78
2022/03/02 03:40:26;;;;;;;45.20;40.50;;;;;;;-4.17;58.91;98827.35;105602;1280;25502;-79
2022/03/02 03:42:54;;;;;;;43.70;39.30;;;;;;;-4.19;59.15;98825.63;105820;1280;22550;-79
2022/03/02 03:45:22;;;;;;;49.50;44.00;;;;;;;-4.19;59.80;98827.96;105509;1280;22613;-77
2022/03/02 03:47:52;;;;;;;47.70;43.00;;;;;;;-4.19;59.99;98828.45;105730;1278;22546;-78
2022/03/02 03:50:20;;;;;;;58.80;52.90;;;;;;;-4.19;59.76;98830.55;105655;1280;22568;-78
2022/03/02 03:52:48;;;;;;;44.30;39.90;;;;;;;-4.20;59.55;98831.27;105537;1280;24441;-79
2022/03/02 03:55:17;;;;;;;52.20;43.20;;;;;;;-4.23;59.59;98828.80;105737;1280;22492;-79
2022/03/02 03:57:45;;;;;;;55.40;49.50;;;;;;;-4.26;59.60;98829.29;105785;1280;25466;-78
2022/03/02 04:00:17;;;;;;;46.70;42.00;;;;;;;-4.27;60.05;98827.00;105767;1280;22695;-78
2022/03/02 04:02:45;;;;;;;50.90;45.80;;;;;;;-4.27;60.19;98826.64;105465;1280;22601;-79
2022/03/02 04:05:13;;;;;;;58.10;52.10;;;;;;;-4.28;60.14;98824.98;105428;1279;22537;-78
2022/03/02 04:07:46;;;;;;;52.30;46.90;;;;;;;-4.27;60.29;98822.66;105554;1280;22616;-78
2022/03/02 04:10:16;;;;;;;43.20;38.70;;;;;;;-4.23;60.29;98819.36;105604;1280;22546;-79
2022/03/02 04:12:45;;;;;;;41.40;37.10;;;;;;;-4.18;60.07;98811.70;105740;1280;22667;-77
2022/03/02 04:15:13;;;;;;;48.00;43.00;;;;;;;-4.11;59.86;98812.20;105590;1280;22688;-76
2022/03/02 04:17:41;;;;;;;46.20;41.50;;;;;;;-4.06;59.68;98816.95;105441;1280;22719;-76
2022/03/02 04:20:10;;;;;;;44.00;39.40;;;;;;;-4.05;59.74;98812.17;105706;1280;24986;-76
2022/03/02 04:22:38;;;;;;;45.30;40.60;;;;;;;-4.07;59.78;98814.96;105732;1280;22633;-75
2022/03/02 04:25:06;;;;;;;44.50;40.20;;;;;;;-4.06;59.76;98815.95;105735;1280;24514;-77
2022/03/02 04:27:34;;;;;;;45.60;41.20;;;;;;;-4.08;59.62;98814.92;105711;1280;25389;-77
2022/03/02 04:30:04;;;;;;;44.60;40.10;;;;;;;-4.12;59.55;98811.27;105742;1280;22691;-75
2022/03/02 04:32:32;;;;;;;43.00;38.80;;;;;;;-4.14;59.83;98813.59;105722;1280;24420;-77
2022/03/02 04:35:00;;;;;;;41.50;37.30;;;;;;;-4.15;59.95;98810.05;105487;1280;22564;-76
2022/03/02 04:37:28;;;;;;;40.30;36.40;;;;;;;-4.18;59.61;98812.84;105710;1280;23106;-76
2022/03/02 04:39:56;;;;;;;43.20;36.10;;;;;;;-4.19;59.75;98812.05;105452;1280;25548;-76
2022/03/02 04:42:24;;;;;;;39.10;35.20;;;;;;;-4.21;59.81;98810.52;105731;1280;22708;-76
2022/03/02 04:44:52;;;;;;;39.50;35.50;;;;;;;-4.23;59.96;98804.98;105737;1280;22680;-76
2022/03/02 04:47:19;;;;;;;41.60;37.30;;;;;;;-4.25;59.86;98803.39;105742;1280;23976;-78
2022/03/02 04:49:48;;;;;;;41.70;37.40;;;;;;;-4.27;59.90;98800.29;105928;1280;24454;-75
2022/03/02 04:52:15;;;;;;;43.20;38.80;;;;;;;-4.32;60.06;98793.07;105475;1280;24265;-76
2022/03/02 04:57:30;;;;;;;73.50;55.70;;;;;;;-4.34;59.89;98801.88;105733;1280;22550;-76
2022/03/02 04:59:58;;;;;;;52.40;45.20;;;;;;;-4.37;59.99;98800.55;105733;1280;22720;-76
2022/03/02 05:02:26;;;;;;;55.40;49.40;;;;;;;-4.38;60.28;98798.77;105728;1280;22724;-74
2022/03/02 05:04:54;;;;;;;60.00;52.80;;;;;;;-4.38;60.09;98797.06;105366;1280;22552;-76
2022/03/02 05:07:22;;;;;;;66.50;54.20;;;;;;;-4.38;60.08;98789.70;105580;1280;25307;-76
2022/03/02 05:09:50;;;;;;;79.40;54.60;;;;;;;-4.34;60.31;98786.46;105515;1280;23554;-78
2022/03/02 05:12:18;;;;;;;53.10;43.90;;;;;;;-4.28;60.09;98787.95;105773;1280;22564;-76
2022/03/02 05:14:46;;;;;;;48.40;42.60;;;;;;;-4.21;60.30;98786.61;105807;1280;22559;-76
2022/03/02 05:17:13;;;;;;;57.50;46.70;;;;;;;-4.15;60.34;98783.77;105526;1280;24707;-76
2022/03/02 05:19:42;;;;;;;41.30;36.90;;;;;;;-4.10;60.32;98782.17;105752;1280;22613;-76
2022/03/02 05:22:10;;;;;;;40.40;36.30;;;;;;;-4.07;60.32;98788.73;105615;1280;22700;-76
2022/03/02 05:24:38;;;;;;;41.80;37.50;;;;;;;-4.07;60.45;98785.61;105556;1280;22559;-77
2022/03/02 05:27:07;;;;;;;44.50;39.90;;;;;;;-4.03;60.39;98785.77;105559;1280;25323;-75
2022/03/02 05:29:35;;;;;;;49.40;44.10;;;;;;;-4.02;60.39;98782.77;105599;1280;23983;-78
2022/03/02 05:32:05;;;;;;;44.40;40.10;;;;;;;-4.01;60.29;98780.91;105707;1280;23907;-77
2022/03/02 05:34:32;;;;;;;44.60;40.20;;;;;;;-4.00;60.47;98782.58;105282;1280;25498;-77
2022/03/02 05:37:00;;;;;;;61.90;55.40;;;;;;;-4.00;60.37;98783.41;105593;1277;22557;-77
2022/03/02 05:39:29;;;;;;;52.90;47.70;;;;;;;-3.99;60.26;98781.02;105520;1280;22568;-76
2022/03/02 05:42:00;;;;;;;46.70;42.20;;;;;;;-3.99;60.26;98779.56;105750;1279;22804;-78
2022/03/02 05:44:34;;;;;;;52.20;47.00;;;;;;;-3.99;60.26;98781.25;105453;1280;24995;-76
2022/03/02 05:47:06;;;;;;;52.20;46.70;;;;;;;-4.02;60.20;98781.41;105327;1280;22540;-76
2022/03/02 05:49:34;;;;;;;52.70;47.10;;;;;;;-4.06;60.18;98784.70;105690;1280;25377;-77
2022/03/02 05:52:05;;;;;;;50.70;45.50;;;;;;;-4.11;60.08;98782.94;105757;1280;23096;-77
2022/03/02 05:54:33;;;;;;;52.70;47.00;;;;;;;-4.16;60.17;98786.85;105931;1280;22706;-77
2022/03/02 05:57:04;;;;;;;67.60;53.30;;;;;;;-4.19;60.30;98785.89;105732;1280;25604;-76
2022/03/02 05:59:33;;;;;;;82.80;62.00;;;;;;;-4.23;60.15;98790.41;105494;1280;25625;-76
2022/03/02 06:02:03;;;;;;;176.00;70.40;;;;;;;-4.27;60.20;98794.93;105482;1280;22537;-77
2022/03/02 06:04:33;;;;;;;142.00;65.80;;;;;;;-4.34;60.17;98796.22;105512;1280;25257;-77
2022/03/02 06:07:04;;;;;;;130.40;68.10;;;;;;;-4.40;60.23;98795.98;105735;1280;25569;-78
2022/03/02 06:09:33;;;;;;;138.40;95.50;;;;;;;-4.43;60.39;98796.78;105913;1280;24784;-77
2022/03/02 06:12:03;;;;;;;133.20;93.90;;;;;;;-4.44;60.71;98798.70;105732;1279;22622;-75
2022/03/02 06:14:32;;;;;;;65.20;58.30;;;;;;;-4.45;60.77;98802.57;105718;1280;22704;-77
2022/03/02 06:17:03;;;;;;;79.60;60.80;;;;;;;-4.40;60.73;98802.92;105926;1280;24363;-76
2022/03/02 06:19:33;;;;;;;60.70;54.10;;;;;;;-4.33;60.94;98803.08;105400;1280;22702;-74
2022/03/02 06:22:04;;;;;;;63.80;57.00;;;;;;;-4.20;60.90;98804.39;105314;1279;22675;-77
2022/03/02 06:24:32;;;;;;;66.90;59.60;;;;;;;-4.10;60.87;98798.41;105905;1280;22870;-77
2022/03/02 06:27:01;;;;;;;65.20;58.90;;;;;;;-4.00;61.02;98798.25;105886;1280;24647;-78
2022/03/02 06:29:29;;;;;;;67.00;59.90;;;;;;;-3.90;61.09;98800.13;105717;1280;22557;-77
2022/03/02 06:31:57;;;;;;;71.60;63.00;;;;;;;-3.79;61.15;98799.57;105813;1279;25343;-78
2022/03/02 06:34:26;;;;;;;94.60;71.80;;;;;;;-3.71;61.16;98797.51;105755;1280;24297;-77
2022/03/02 06:36:54;;;;;;;73.70;65.90;;;;;;;-3.64;61.07;98796.11;105691;1280;22572;-76
2022/03/02 06:39:23;;;;;;;70.70;63.30;;;;;;;-3.55;61.13;98792.84;105757;1280;24247;-79
2022/03/02 06:42:17;;;;;;;68.50;61.30;;;;;;;-3.48;61.15;98791.20;105561;1280;25440;-81
2022/03/02 06:44:50;;;;;;;67.00;59.80;;;;;;;-3.39;61.23;98786.23;105606;1280;24454;-78
2022/03/02 06:47:21;;;;;;;62.30;55.60;;;;;;;-3.30;61.44;98784.76;105583;1280;25376;-77
2022/03/02 06:50:10;;;;;;;66.20;59.00;;;;;;;-3.19;61.43;98785.05;105734;1280;22542;-77
2022/03/02 06:52:40;;;;;;;68.90;61.90;;;;;;;-3.07;61.28;98787.92;105718;1280;22853;-76
2022/03/02 06:55:16;;;;;;;68.30;61.30;;;;;;;-2.95;61.23;98787.59;105721;1280;25329;-75
2022/03/02 06:57:53;;;;;;;64.00;57.40;;;;;;;-2.84;61.27;98785.24;105741;1280;22564;-78
2022/03/02 07:00:23;;;;;;;58.60;52.70;;;;;;;-2.70;61.18;98786.94;105808;1279;25429;-77
2022/03/02 07:03:02;;;;;;;57.00;51.20;;;;;;;-2.58;61.25;98784.17;105682;1280;24037;-77
2022/03/02 07:05:34;;;;;;;61.10;54.80;;;;;;;-2.44;61.23;98784.28;105652;1280;23392;-76
2022/03/02 07:08:03;;;;;;;57.50;51.30;;;;;;;-2.31;61.14;98777.73;105714;1280;24220;-78
2022/03/02 07:10:34;;;;;;;46.30;41.50;;;;;;;-2.16;61.06;98777.30;105768;1279;22553;-79
2022/03/02 07:13:07;;;;;;;53.40;48.00;;;;;;;-2.01;61.15;98780.46;105755;1279;25403;-77
2022/03/02 07:15:35;;;;;;;143.00;82.00;;;;;;;-1.87;61.15;98780.73;105494;1280;24164;-77
2022/03/02 07:18:07;;;;;;;95.20;70.20;;;;;;;-1.73;61.05;98782.14;105743;1280;22563;-77
2022/03/02 07:20:39;;;;;;;132.80;83.70;;;;;;;-1.61;61.10;98785.91;105686;1280;22859;-75
2022/03/02 07:23:15;;;;;;;151.10;90.70;;;;;;;-1.52;61.13;98783.70;105753;1280;22539;-78
2022/03/02 07:25:45;;;;;;;139.80;89.20;;;;;;;-1.46;61.08;98778.67;105597;1280;22535;-77
2022/03/02 07:28:15;;;;;;;160.30;98.60;;;;;;;-1.42;61.08;98779.84;105729;1280;24382;-78
2022/03/02 07:30:44;;;;;;;78.60;66.70;;;;;;;-1.36;61.14;98773.09;105557;1280;22550;-76
2022/03/02 07:33:15;;;;;;;62.70;47.10;;;;;;;-1.28;61.25;98776.65;105765;1280;22553;-77
2022/03/02 07:35:54;;;;;;;37.20;33.20;;;;;;;-1.18;61.24;98774.30;105623;1280;22629;-77
2022/03/02 07:38:22;;;;;;;36.70;33.00;;;;;;;-1.05;61.15;98776.27;105458;1280;25485;-78
2022/03/02 07:40:52;;;;;;;33.40;29.70;;;;;;;-0.91;61.01;98774.08;105674;1280;23221;-77
2022/03/02 07:43:21;;;;;;;32.50;29.50;;;;;;;-0.77;60.83;98774.70;105653;1279;25393;-77
2022/03/02 07:45:50;;;;;;;32.30;29.30;;;;;;;-0.65;60.47;98775.17;105810;1279;22560;-78
2022/03/02 07:48:17;;;;;;;30.40;27.40;;;;;;;-0.53;60.44;98774.89;105869;1280;22560;-76
2022/03/02 07:50:46;;;;;;;29.20;26.60;;;;;;;-0.44;60.07;98776.09;105496;1280;22569;-80
2022/03/02 07:53:16;;;;;;;29.60;26.90;;;;;;;-0.33;60.00;98772.53;105779;1280;22567;-78
2022/03/02 07:55:46;;;;;;;29.70;26.90;;;;;;;-0.22;59.91;98766.69;106156;1280;22547;-77
2022/03/02 07:58:15;;;;;;;27.60;24.80;;;;;;;-0.13;59.46;98764.66;106959;1280;22957;-78
2022/03/02 08:00:48;;;;;;;26.90;24.30;;;;;;;-0.03;59.67;98765.94;106075;1279;25320;-76
2022/03/02 08:03:18;;;;;;;24.80;22.20;;;;;;;0.08;59.53;98761.75;105904;1279;25380;-78
2022/03/02 08:05:46;;;;;;;29.80;27.10;;;;;;;0.17;59.30;98763.30;106092;1280;24857;-79
2022/03/02 08:08:15;;;;;;;27.30;24.40;;;;;;;0.25;59.45;98754.22;106987;1280;24439;-78
2022/03/02 08:10:44;;;;;;;27.20;24.70;;;;;;;0.34;59.18;98758.36;107556;1280;24384;-79
2022/03/02 08:13:13;;;;;;;23.20;20.90;;;;;;;0.46;59.35;98757.05;107385;1280;22579;-79
2022/03/02 08:15:41;;;;;;;21.50;19.40;;;;;;;0.54;58.39;98754.96;107359;1280;24197;-78
2022/03/02 08:18:10;;;;;;;22.20;19.90;;;;;;;0.61;58.17;98757.74;107968;1279;22583;-78
2022/03/02 08:20:59;;;;;;;23.90;21.40;;;;;;;0.62;57.08;98757.58;106176;1280;22630;-79
2022/03/02 08:23:38;;;;;;;26.10;23.40;;;;;;;0.70;58.12;98749.93;106342;1280;25380;-78
2022/03/02 08:26:07;;;;;;;22.30;20.20;;;;;;;0.80;57.49;98750.52;106220;1280;22732;-77
2022/03/02 08:28:35;;;;;;;20.40;18.50;;;;;;;0.88;57.09;98750.23;106194;1280;22825;-79
2022/03/02 08:31:59;;;;;;;19.70;17.80;;;;;;;0.96;57.38;98752.20;106027;1279;26011;-78
2022/03/02 08:34:29;;;;;;;21.00;18.80;;;;;;;1.03;56.68;98745.30;106188;1280;24788;-79
2022/03/02 08:36:57;;;;;;;19.50;17.60;;;;;;;1.11;56.36;98744.74;106206;1280;22601;-76
2022/03/02 08:39:26;;;;;;;19.80;17.70;;;;;;;1.12;56.10;98748.13;106126;1280;24401;-79
2022/03/02 08:41:55;;;;;;;20.80;18.80;;;;;;;1.10;55.45;98744.30;106015;1280;24262;-79
2022/03/02 08:44:23;;;;;;;21.50;19.40;;;;;;;1.11;55.15;98748.95;105991;1280;24254;-81
2022/03/02 08:46:51;;;;;;;19.60;17.70;;;;;;;1.15;56.42;98743.64;105881;1279;24465;-80
2022/03/02 08:49:20;;;;;;;21.50;19.20;;;;;;;1.23;56.73;98736.23;105920;1280;23295;-80
2022/03/02 08:51:50;;;;;;;19.50;17.60;;;;;;;1.37;57.13;98730.84;106070;1280;22713;-79
2022/03/02 08:54:19;;;;;;;20.50;18.50;;;;;;;1.46;56.68;98728.83;106106;1280;25595;-81
2022/03/02 08:56:48;;;;;;;20.90;18.30;;;;;;;1.54;57.03;98722.17;105973;1280;23289;-79
2022/03/02 08:59:18;;;;;;;23.10;17.50;;;;;;;1.65;57.08;98716.88;106020;1280;22697;-79
2022/03/02 09:01:51;;;;;;;18.50;16.60;;;;;;;1.73;56.89;98717.06;105958;1280;25238;-80
2022/03/02 09:04:23;;;;;;;18.20;16.50;;;;;;;1.80;56.59;98715.27;106060;1280;22563;-80
2022/03/02 09:06:52;;;;;;;19.40;17.50;;;;;;;1.85;56.26;98711.55;106055;1279;24086;-80
2022/03/02 09:09:21;;;;;;;21.80;19.70;;;;;;;1.93;56.30;98707.41;105932;1280;22554;-80
2022/03/02 09:11:49;;;;;;;18.60;16.70;;;;;;;2.00;56.69;98707.56;105904;1279;23383;-80
2022/03/02 09:14:18;;;;;;;19.70;17.70;;;;;;;2.09;56.78;98707.13;106043;1280;22554;-79
2022/03/02 09:16:46;;;;;;;17.90;16.10;;;;;;;2.19;56.23;98711.17;105836;1280;25332;-79
2022/03/02 09:19:15;;;;;;;21.60;17.00;;;;;;;2.28;56.43;98707.33;105963;1280;22576;-79
2022/03/02 09:21:44;;;;;;;20.30;17.90;;;;;;;2.31;56.08;98702.25;106185;1279;22538;-78
2022/03/02 09:24:13;;;;;;;18.90;16.90;;;;;;;2.35;56.25;98704.86;106022;1280;22627;-78
2022/03/02 09:26:42;;;;;;;17.80;16.10;;;;;;;2.39;56.18;98698.26;106013;1280;22612;-79
2022/03/02 09:29:10;;;;;;;21.10;18.90;;;;;;;2.43;56.30;98694.64;106098;1280;22627;-79
2022/03/02 09:31:38;;;;;;;18.40;15.30;;;;;;;2.49;55.94;98688.47;106107;1280;25400;-78
2022/03/02 09:34:09;;;;;;;18.50;16.60;;;;;;;2.51;55.40;98687.13;105879;1281;22649;-81
2022/03/02 09:36:59;;;;;;;16.70;15.10;;;;;;;2.51;54.39;98687.66;106017;1280;24314;-79
2022/03/02 09:39:27;;;;;;;16.80;15.10;;;;;;;2.53;54.86;98684.52;105906;1280;26290;-81
2022/03/02 09:42:15;;;;;;;20.90;17.30;;;;;;;2.60;55.24;98685.39;105902;1280;22644;-80
2022/03/02 09:44:46;;;;;;;18.00;16.00;;;;;;;2.69;55.35;98683.27;106165;1278;22783;-83
2022/03/02 09:47:16;;;;;;;17.80;16.10;;;;;;;2.78;55.28;98681.73;105937;1281;22616;-81
2022/03/02 09:49:53;;;;;;;17.60;15.80;;;;;;;2.81;54.84;98680.53;106068;1280;24312;-78
2022/03/02 09:52:22;;;;;;;17.10;15.10;;;;;;;2.86;54.70;98674.90;106012;1279;24715;-80
2022/03/02 09:54:56;;;;;;;19.30;16.60;;;;;;;2.92;54.76;98677.65;105800;1280;25422;-81
2022/03/02 09:57:26;;;;;;;18.80;16.90;;;;;;;3.01;54.76;98674.61;105882;1280;22537;-82
2022/03/02 09:59:57;;;;;;;17.10;15.50;;;;;;;3.05;54.47;98675.99;105735;1280;22712;-83
2022/03/02 10:02:40;;;;;;;17.40;15.70;;;;;;;3.12;54.18;98667.32;106050;1279;22663;-82
2022/03/02 10:05:28;;;;;;;16.40;14.90;;;;;;;3.20;54.36;98666.12;106006;1279;22533;-85
2022/03/02 10:08:07;;;;;;;17.20;15.60;;;;;;;3.28;54.24;98668.84;106064;1279;25362;-83
2022/03/02 10:10:38;;;;;;;16.30;14.80;;;;;;;3.39;54.29;98667.96;106369;1279;24088;-82
2022/03/02 10:13:12;;;;;;;17.30;15.70;;;;;;;3.50;53.81;98660.55;106054;1280;23169;-82
2022/03/02 10:15:44;;;;;;;19.70;17.80;;;;;;;3.57;53.67;98658.08;105821;1280;22563;-84
2022/03/02 10:18:15;;;;;;;17.00;15.30;;;;;;;3.62;53.47;98651.04;105989;1279;22560;-81
2022/03/02 10:20:49;;;;;;;17.70;15.70;;;;;;;3.70;53.39;98650.61;105799;1280;25271;-82
2022/03/02 10:23:40;;;;;;;17.70;16.00;;;;;;;3.77;53.28;98643.82;106006;1279;24317;-82
2022/03/02 10:26:08;;;;;;;21.90;16.30;;;;;;;3.85;53.13;98639.52;105953;1279;25412;-81
2022/03/02 10:28:45;;;;;;;31.30;16.50;;;;;;;3.95;53.67;98637.88;105994;1280;22849;-84
2022/03/02 10:31:23;;;;;;;16.30;14.60;;;;;;;4.06;53.18;98632.55;105938;1280;22675;-81
2022/03/02 10:34:00;;;;;;;22.90;14.20;;;;;;;4.20;53.39;98630.73;105954;1279;22562;-80
2022/03/02 10:36:39;;;;;;;15.30;13.80;;;;;;;4.29;52.83;98627.38;105714;1280;22791;-81
2022/03/02 10:39:08;;;;;;;17.30;15.50;;;;;;;4.38;52.99;98618.50;105661;1280;22629;-81
2022/03/02 10:41:39;;;;;;;16.40;14.60;;;;;;;4.45;52.29;98616.91;105974;1279;24390;-82
2022/03/02 10:44:32;;;;;;;17.50;15.70;;;;;;;4.49;51.65;98608.72;105895;1279;23528;-80
2022/03/02 10:47:06;;;;;;;18.30;13.60;;;;;;;4.55;51.81;98607.21;105483;1280;22548;-81
2022/03/02 10:49:35;;;;;;;13.00;11.80;;;;;;;4.59;51.43;98594.62;105892;1280;23340;-82
2022/03/02 10:52:06;;;;;;;15.00;13.50;;;;;;;4.66;51.07;98591.63;105620;1280;22683;-82
2022/03/02 10:54:39;;;;;;;15.20;13.80;;;;;;;4.68;50.67;98592.47;105876;1280;22551;-82
2022/03/02 10:57:25;;;;;;;14.60;13.20;;;;;;;4.74;51.19;98589.41;106076;1279;25374;-83
2022/03/02 11:00:01;;;;;;;14.70;13.30;;;;;;;4.79;50.35;98582.11;105859;1279;25257;-81
2022/03/02 11:02:35;;;;;;;14.40;13.00;;;;;;;4.81;49.74;98576.48;105784;1280;25256;-81
2022/03/02 11:05:04;;;;;;;16.10;14.50;;;;;;;4.82;49.68;98571.27;105878;1279;22545;-81
2022/03/02 11:07:34;;;;;;;23.10;14.30;;;;;;;4.85;50.23;98569.59;105926;1279;24088;-80
2022/03/02 11:10:06;;;;;;;17.50;13.00;;;;;;;4.90;50.10;98565.83;105890;1280;25465;-81
2022/03/02 11:12:39;;;;;;;16.20;14.50;;;;;;;4.94;50.13;98561.84;105907;1280;22544;-81
2022/03/02 11:15:09;;;;;;;14.70;13.20;;;;;;;5.06;50.30;98558.36;106038;1279;22713;-81
2022/03/02 11:17:48;;;;;;;15.10;13.40;;;;;;;5.15;49.39;98559.29;105762;1280;24424;-81
2022/03/02 11:20:17;;;;;;;14.90;13.40;;;;;;;5.23;48.95;98559.50;106062;1280;25368;-81
2022/03/02 11:23:11;;;;;;;15.80;13.30;;;;;;;5.16;47.79;98558.75;106052;1279;22541;-79
2022/03/02 11:25:47;;;;;;;14.50;13.00;;;;;;;4.91;47.59;98551.54;105750;1281;25594;-80
2022/03/02 11:28:25;;;;;;;15.50;14.00;;;;;;;4.78;47.43;98547.02;106094;1279;22561;-78